This is the latest recevied weather packets stored in our database for station/object KY4GW. If no packets are shown the sender has not sent any weather packets the latest 10 day(s).
| Time | Temp. | Humidity | Pressure | Rain* | Wind** | Luminosity | Snow |
|---|---|---|---|---|---|---|---|
| 1777838799 | 17.22° C | 37% | 1019.6 hPa | 0 mm | - | 656 W/m² | - |
| 1777838496 | 17.22° C | 38% | 1019.6 hPa | 0 mm | - | 671 W/m² | - |
| 1777837890 | 17.22° C | 40% | 1020.4 hPa | 0 mm | - | 690 W/m² | - |
| 1777836675 | 16.67° C | 39% | 1020.4 hPa | 0 mm | - | 722 W/m² | - |
| 1777835764 | 17.22° C | 39% | 1020.7 hPa | 0 mm | - | 742 W/m² | - |
| 1777835460 | 16.67° C | 41% | 1020.7 hPa | 0 mm | - | 751 W/m² | - |
| 1777835157 | 16.67° C | 36% | 1020.7 hPa | 0 mm | - | 762 W/m² | - |
| 1777834551 | 16.67° C | 37% | 1021.1 hPa | 0 mm | - | 792 W/m² | - |
| 1777833340 | 16.11° C | 36% | 1021.1 hPa | 0 mm | - | 831 W/m² | - |
| 1777831826 | 16.67° C | 40% | 1021.4 hPa | 0 mm | - | 847 W/m² | - |
| 1777831524 | 16.11° C | 40% | 1021.4 hPa | 0 mm | - | 849 W/m² | - |
| 1777831221 | 16.11° C | 42% | 1021.8 hPa | 0 mm | - | 855 W/m² | - |
| 1777828189 | 15.56° C | 41% | 1022.8 hPa | 0 mm | - | 880 W/m² | - |
| 1777827280 | 15° C | 42% | 1022.8 hPa | 0 mm | - | 870 W/m² | - |
| 1777826067 | 14.44° C | 40% | 1023.1 hPa | 0 mm | - | 855 W/m² | - |
| 1777824855 | 15° C | 40% | 1023.5 hPa | 0 mm | - | 829 W/m² | - |
| 1777822128 | 15° C | 39% | 1023.5 hPa | 0 mm | - | 763 W/m² | - |
| 1777819100 | 14.44° C | 39% | 1023.5 hPa | 0 mm | - | 629 W/m² | - |
| 1777818190 | 14.44° C | 45% | 1023.5 hPa | 0 mm | - | 585 W/m² | - |
| 1777817886 | 14.44° C | 45% | 1023.5 hPa | 0 mm | - | 569 W/m² | - |
| 1777814250 | 11.67° C | 57% | 1023.1 hPa | 0 mm | - | 356 W/m² | - |
| 1777813947 | 11.67° C | 57% | 1023.5 hPa | 0 mm | - | 337 W/m² | - |
| 1777813645 | 11.67° C | 55% | 1023.5 hPa | 0 mm | - | 318 W/m² | - |
| 1777813342 | 11.67° C | 56% | 1023.5 hPa | 0 mm | - | 298 W/m² | - |
| 1777813040 | 11.11° C | 59% | 1023.8 hPa | 0 mm | - | 280 W/m² | - |
* Rain latest hour (hover to see other rain measurements)
** Current wind speed in m/s (hover to see current wind gust speed)